sensor_id;sensor_type;location;lat;lon;timestamp;pressure;altitude;pressure_sealevel;temperature;humidity
31044;BME280;17710;52.520;13.352;2023-01-30T00:00:50;100998.09;;;6.39;53.74
31044;BME280;17710;52.520;13.352;2023-01-30T00:03:17;100999.84;;;6.40;53.96
31044;BME280;17710;52.520;13.352;2023-01-30T00:05:44;100992.94;;;6.33;54.02
31044;BME280;17710;52.520;13.352;2023-01-30T00:08:10;100975.63;;;6.21;54.21
31044;BME280;17710;52.520;13.352;2023-01-30T00:10:38;100968.38;;;6.37;53.82
31044;BME280;17710;52.520;13.352;2023-01-30T00:13:04;100950.38;;;6.11;54.52
31044;BME280;17710;52.520;13.352;2023-01-30T00:15:31;100951.41;;;6.01;54.82
31044;BME280;17710;52.520;13.352;2023-01-30T00:17:57;100943.38;;;6.12;54.93
31044;BME280;17710;52.520;13.352;2023-01-30T00:20:23;100940.66;;;6.18;54.29
31044;BME280;17710;52.520;13.352;2023-01-30T00:22:50;100941.63;;;6.14;54.34
31044;BME280;17710;52.520;13.352;2023-01-30T00:25:16;100931.69;;;6.34;53.80
31044;BME280;17710;52.520;13.352;2023-01-30T00:27:44;100928.41;;;6.18;54.54
31044;BME280;17710;52.520;13.352;2023-01-30T00:30:11;100917.25;;;6.06;54.54
31044;BME280;17710;52.520;13.352;2023-01-30T00:32:37;100895.81;;;6.34;54.24
31044;BME280;17710;52.520;13.352;2023-01-30T00:35:05;100889.72;;;6.31;53.81
31044;BME280;17710;52.520;13.352;2023-01-30T00:37:31;100872.63;;;6.09;54.78
31044;BME280;17710;52.520;13.352;2023-01-30T00:39:58;100861.91;;;6.21;54.65
31044;BME280;17710;52.520;13.352;2023-01-30T00:42:25;100844.63;;;6.08;54.68
31044;BME280;17710;52.520;13.352;2023-01-30T00:45:10;100842.50;;;6.31;54.23
31044;BME280;17710;52.520;13.352;2023-01-30T00:47:55;100828.56;;;6.29;54.49
31044;BME280;17710;52.520;13.352;2023-01-30T00:50:22;100816.25;;;6.31;54.00
31044;BME280;17710;52.520;13.352;2023-01-30T00:52:48;100809.00;;;6.45;53.68
31044;BME280;17710;52.520;13.352;2023-01-30T00:55:15;100809.59;;;6.12;54.35
31044;BME280;17710;52.520;13.352;2023-01-30T00:57:43;100799.16;;;6.09;55.11
31044;BME280;17710;52.520;13.352;2023-01-30T01:00:13;100788.56;;;6.13;54.79
31044;BME280;17710;52.520;13.352;2023-01-30T01:02:41;100794.44;;;6.29;54.17
31044;BME280;17710;52.520;13.352;2023-01-30T01:05:08;100798.59;;;6.42;54.09
31044;BME280;17710;52.520;13.352;2023-01-30T01:07:34;100791.97;;;6.18;54.39
31044;BME280;17710;52.520;13.352;2023-01-30T01:10:01;100788.66;;;6.09;54.68
31044;BME280;17710;52.520;13.352;2023-01-30T01:12:27;100781.59;;;6.12;54.76
31044;BME280;17710;52.520;13.352;2023-01-30T01:14:53;100775.25;;;6.24;54.69
31044;BME280;17710;52.520;13.352;2023-01-30T01:17:21;100764.56;;;6.36;54.11
31044;BME280;17710;52.520;13.352;2023-01-30T01:19:47;100717.38;;;6.33;53.88
31044;BME280;17710;52.520;13.352;2023-01-30T01:22:14;100730.63;;;6.27;54.68
31044;BME280;17710;52.520;13.352;2023-01-30T01:24:40;100734.94;;;6.29;54.19
31044;BME280;17710;52.520;13.352;2023-01-30T01:27:07;100722.47;;;6.42;53.88
31044;BME280;17710;52.520;13.352;2023-01-30T01:29:33;100719.41;;;6.63;53.93
31044;BME280;17710;52.520;13.352;2023-01-30T01:31:59;100720.06;;;6.76;53.13
31044;BME280;17710;52.520;13.352;2023-01-30T01:34:27;100716.88;;;6.59;53.37
31044;BME280;17710;52.520;13.352;2023-01-30T01:36:53;100706.66;;;6.44;53.96
31044;BME280;17710;52.520;13.352;2023-01-30T01:39:21;100721.66;;;6.37;54.13
31044;BME280;17710;52.520;13.352;2023-01-30T01:41:47;100730.38;;;6.39;54.25
31044;BME280;17710;52.520;13.352;2023-01-30T01:44:13;100738.63;;;6.19;54.32
31044;BME280;17710;52.520;13.352;2023-01-30T01:46:43;100742.09;;;6.21;54.69
31044;BME280;17710;52.520;13.352;2023-01-30T01:49:16;100735.19;;;6.16;54.83
31044;BME280;17710;52.520;13.352;2023-01-30T01:51:52;100735.00;;;6.26;54.52
31044;BME280;17710;52.520;13.352;2023-01-30T01:54:23;100712.34;;;6.22;54.63
31044;BME280;17710;52.520;13.352;2023-01-30T01:56:51;100711.22;;;6.35;54.38
31044;BME280;17710;52.520;13.352;2023-01-30T01:59:21;100700.75;;;6.34;54.21
31044;BME280;17710;52.520;13.352;2023-01-30T02:01:52;100697.97;;;6.42;54.66
31044;BME280;17710;52.520;13.352;2023-01-30T02:04:20;100681.47;;;5.86;55.97
31044;BME280;17710;52.520;13.352;2023-01-30T02:07:13;100669.84;;;6.04;56.57
31044;BME280;17710;52.520;13.352;2023-01-30T02:09:42;100657.50;;;6.09;57.02
31044;BME280;17710;52.520;13.352;2023-01-30T02:12:10;100649.13;;;5.85;58.29
31044;BME280;17710;52.520;13.352;2023-01-30T02:14:38;100641.94;;;5.98;58.23
31044;BME280;17710;52.520;13.352;2023-01-30T02:17:05;100640.13;;;6.02;57.99
31044;BME280;17710;52.520;13.352;2023-01-30T02:19:35;100622.16;;;5.79;59.17
31044;BME280;17710;52.520;13.352;2023-01-30T02:22:33;100607.66;;;6.09;58.66
31044;BME280;17710;52.520;13.352;2023-01-30T02:25:16;100598.81;;;6.13;58.22
31044;BME280;17710;52.520;13.352;2023-01-30T02:28:13;100598.16;;;6.02;58.85
31044;BME280;17710;52.520;13.352;2023-01-30T02:31:12;100585.81;;;6.08;58.57
31044;BME280;17710;52.520;13.352;2023-01-30T02:33:45;100589.91;;;6.21;57.76
31044;BME280;17710;52.520;13.352;2023-01-30T02:36:20;100582.81;;;6.25;58.23
31044;BME280;17710;52.520;13.352;2023-01-30T02:38:54;100585.91;;;6.04;58.40
31044;BME280;17710;52.520;13.352;2023-01-30T02:41:32;100583.06;;;6.14;58.50
31044;BME280;17710;52.520;13.352;2023-01-30T02:44:03;100568.47;;;5.99;59.72
31044;BME280;17710;52.520;13.352;2023-01-30T02:46:36;100556.56;;;5.80;61.27
31044;BME280;17710;52.520;13.352;2023-01-30T02:49:07;100562.66;;;5.84;62.21
31044;BME280;17710;52.520;13.352;2023-01-30T02:51:36;100555.72;;;5.80;61.92
31044;BME280;17710;52.520;13.352;2023-01-30T02:54:04;100543.69;;;5.68;62.29
31044;BME280;17710;52.520;13.352;2023-01-30T02:56:42;100544.94;;;5.96;62.23
31044;BME280;17710;52.520;13.352;2023-01-30T02:59:09;100527.53;;;5.91;61.84
31044;BME280;17710;52.520;13.352;2023-01-30T03:02:01;100527.69;;;5.83;62.20
31044;BME280;17710;52.520;13.352;2023-01-30T03:04:44;100518.53;;;6.04;61.43
31044;BME280;17710;52.520;13.352;2023-01-30T03:07:24;100513.72;;;6.24;60.89
31044;BME280;17710;52.520;13.352;2023-01-30T03:10:01;100513.09;;;6.15;60.94
31044;BME280;17710;52.520;13.352;2023-01-30T03:12:38;100503.22;;;6.26;60.20
31044;BME280;17710;52.520;13.352;2023-01-30T03:15:11;100509.06;;;6.38;59.59
31044;BME280;17710;52.520;13.352;2023-01-30T03:17:44;100492.44;;;6.38;59.33
31044;BME280;17710;52.520;13.352;2023-01-30T03:20:12;100489.94;;;6.33;59.92
31044;BME280;17710;52.520;13.352;2023-01-30T03:22:39;100475.56;;;6.50;59.41
31044;BME280;17710;52.520;13.352;2023-01-30T03:25:07;100484.50;;;6.43;59.96
31044;BME280;17710;52.520;13.352;2023-01-30T03:27:34;100490.66;;;6.40;59.51
31044;BME280;17710;52.520;13.352;2023-01-30T03:30:01;100485.53;;;6.34;59.77
31044;BME280;17710;52.520;13.352;2023-01-30T03:32:27;100472.41;;;5.95;61.00
31044;BME280;17710;52.520;13.352;2023-01-30T03:34:55;100468.53;;;5.69;61.73
31044;BME280;17710;52.520;13.352;2023-01-30T03:37:24;100477.78;;;5.89;61.52
31044;BME280;17710;52.520;13.352;2023-01-30T03:39:51;100473.06;;;6.05;60.94
31044;BME280;17710;52.520;13.352;2023-01-30T03:42:17;100470.47;;;6.04;61.12
31044;BME280;17710;52.520;13.352;2023-01-30T03:44:44;100462.25;;;6.19;60.86
31044;BME280;17710;52.520;13.352;2023-01-30T03:47:10;100458.56;;;6.27;60.64
31044;BME280;17710;52.520;13.352;2023-01-30T03:49:36;100444.09;;;6.48;60.53
31044;BME280;17710;52.520;13.352;2023-01-30T03:52:04;100446.44;;;6.60;60.35
31044;BME280;17710;52.520;13.352;2023-01-30T03:54:30;100445.16;;;6.41;61.08
31044;BME280;17710;52.520;13.352;2023-01-30T03:56:57;100430.59;;;6.26;61.47
31044;BME280;17710;52.520;13.352;2023-01-30T03:59:23;100429.53;;;6.35;61.46
31044;BME280;17710;52.520;13.352;2023-01-30T04:01:50;100424.34;;;6.32;61.25
31044;BME280;17710;52.520;13.352;2023-01-30T04:04:16;100419.69;;;6.45;61.27
31044;BME280;17710;52.520;13.352;2023-01-30T04:06:42;100411.47;;;6.58;60.86
31044;BME280;17710;52.520;13.352;2023-01-30T04:09:10;100395.50;;;6.67;60.41
31044;BME280;17710;52.520;13.352;2023-01-30T04:11:37;100404.69;;;6.84;60.00
31044;BME280;17710;52.520;13.352;2023-01-30T04:14:03;100382.78;;;6.85;59.75
31044;BME280;17710;52.520;13.352;2023-01-30T04:16:29;100387.13;;;6.87;59.45
31044;BME280;17710;52.520;13.352;2023-01-30T04:18:56;100380.97;;;6.54;60.39
31044;BME280;17710;52.520;13.352;2023-01-30T04:21:22;100388.84;;;6.54;60.87
31044;BME280;17710;52.520;13.352;2023-01-30T04:23:48;100388.28;;;6.42;61.11
31044;BME280;17710;52.520;13.352;2023-01-30T04:26:16;100379.75;;;6.67;60.59
31044;BME280;17710;52.520;13.352;2023-01-30T04:28:43;100380.06;;;6.55;60.75
31044;BME280;17710;52.520;13.352;2023-01-30T04:31:09;100379.09;;;6.58;60.44
31044;BME280;17710;52.520;13.352;2023-01-30T04:33:36;100377.44;;;6.55;60.60
31044;BME280;17710;52.520;13.352;2023-01-30T04:36:05;100367.44;;;6.69;60.48
31044;BME280;17710;52.520;13.352;2023-01-30T04:38:33;100365.41;;;6.80;59.81
31044;BME280;17710;52.520;13.352;2023-01-30T04:41:00;100365.94;;;6.59;60.49
31044;BME280;17710;52.520;13.352;2023-01-30T04:43:29;100362.38;;;6.26;61.79
31044;BME280;17710;52.520;13.352;2023-01-30T04:45:55;100372.53;;;6.42;61.89
31044;BME280;17710;52.520;13.352;2023-01-30T04:48:23;100351.41;;;6.46;62.12
31044;BME280;17710;52.520;13.352;2023-01-30T04:50:51;100346.91;;;6.51;62.14
31044;BME280;17710;52.520;13.352;2023-01-30T04:53:19;100347.00;;;6.48;62.40
31044;BME280;17710;52.520;13.352;2023-01-30T04:55:46;100342.78;;;6.75;61.77
31044;BME280;17710;52.520;13.352;2023-01-30T04:58:12;100342.72;;;6.76;61.75
31044;BME280;17710;52.520;13.352;2023-01-30T05:00:40;100333.88;;;6.80;61.91
31044;BME280;17710;52.520;13.352;2023-01-30T05:03:07;100326.59;;;6.90;61.83
31044;BME280;17710;52.520;13.352;2023-01-30T05:05:34;100335.50;;;6.85;62.23
31044;BME280;17710;52.520;13.352;2023-01-30T05:08:00;100320.81;;;6.77;63.13
31044;BME280;17710;52.520;13.352;2023-01-30T05:10:27;100332.69;;;6.92;63.24
31044;BME280;17710;52.520;13.352;2023-01-30T05:12:54;100337.94;;;6.60;64.33
31044;BME280;17710;52.520;13.352;2023-01-30T05:15:20;100318.28;;;6.42;65.48
31044;BME280;17710;52.520;13.352;2023-01-30T05:17:48;100318.53;;;6.31;66.43
31044;BME280;17710;52.520;13.352;2023-01-30T05:20:14;100310.84;;;6.24;66.76
31044;BME280;17710;52.520;13.352;2023-01-30T05:22:40;100306.75;;;6.48;65.96
31044;BME280;17710;52.520;13.352;2023-01-30T05:25:08;100304.09;;;6.82;65.13
31044;BME280;17710;52.520;13.352;2023-01-30T05:27:34;100294.69;;;6.73;65.03
31044;BME280;17710;52.520;13.352;2023-01-30T05:30:00;100290.44;;;6.36;66.79
31044;BME280;17710;52.520;13.352;2023-01-30T05:32:27;100292.09;;;6.71;65.73
31044;BME280;17710;52.520;13.352;2023-01-30T05:35:07;100284.88;;;6.79;65.72
31044;BME280;17710;52.520;13.352;2023-01-30T05:37:34;100281.16;;;6.88;65.28
31044;BME280;17710;52.520;13.352;2023-01-30T05:40:02;100273.53;;;6.79;65.48
31044;BME280;17710;52.520;13.352;2023-01-30T05:42:29;100275.28;;;6.78;65.61
31044;BME280;17710;52.520;13.352;2023-01-30T05:44:55;100264.50;;;6.89;65.11
31044;BME280;17710;52.520;13.352;2023-01-30T05:47:22;100265.47;;;6.85;65.18
31044;BME280;17710;52.520;13.352;2023-01-30T05:49:48;100250.38;;;6.62;66.05
31044;BME280;17710;52.520;13.352;2023-01-30T05:52:16;100252.84;;;6.67;66.23
31044;BME280;17710;52.520;13.352;2023-01-30T05:54:42;100243.25;;;6.66;66.18
31044;BME280;17710;52.520;13.352;2023-01-30T05:57:09;100244.78;;;6.74;66.15
31044;BME280;17710;52.520;13.352;2023-01-30T05:59:35;100240.50;;;6.70;66.80
31044;BME280;17710;52.520;13.352;2023-01-30T06:02:02;100234.84;;;6.84;65.97
31044;BME280;17710;52.520;13.352;2023-01-30T06:04:28;100227.16;;;6.78;66.32
31044;BME280;17710;52.520;13.352;2023-01-30T06:06:54;100228.84;;;6.80;66.31
31044;BME280;17710;52.520;13.352;2023-01-30T06:09:22;100230.84;;;6.71;66.67
31044;BME280;17710;52.520;13.352;2023-01-30T06:11:48;100231.97;;;6.93;66.07
31044;BME280;17710;52.520;13.352;2023-01-30T06:14:16;100232.06;;;6.90;66.26
31044;BME280;17710;52.520;13.352;2023-01-30T06:16:42;100226.19;;;7.11;65.82
31044;BME280;17710;52.520;13.352;2023-01-30T06:19:09;100224.31;;;6.86;66.66
31044;BME280;17710;52.520;13.352;2023-01-30T06:21:35;100232.03;;;6.61;67.70
31044;BME280;17710;52.520;13.352;2023-01-30T06:24:02;100227.03;;;6.83;67.26
31044;BME280;17710;52.520;13.352;2023-01-30T06:26:30;100226.25;;;6.79;67.68
31044;BME280;17710;52.520;13.352;2023-01-30T06:28:56;100228.53;;;6.91;67.30
31044;BME280;17710;52.520;13.352;2023-01-30T06:31:23;100224.25;;;6.89;67.35
31044;BME280;17710;52.520;13.352;2023-01-30T06:33:49;100226.44;;;7.02;67.15
31044;BME280;17710;52.520;13.352;2023-01-30T06:36:15;100243.78;;;6.78;68.05
31044;BME280;17710;52.520;13.352;2023-01-30T06:38:42;100235.13;;;6.75;68.05
31044;BME280;17710;52.520;13.352;2023-01-30T06:41:08;100232.34;;;7.10;67.45
31044;BME280;17710;52.520;13.352;2023-01-30T06:43:36;100237.28;;;6.92;67.62
31044;BME280;17710;52.520;13.352;2023-01-30T06:46:02;100228.00;;;6.78;68.53
31044;BME280;17710;52.520;13.352;2023-01-30T06:48:29;100229.78;;;6.78;68.68
31044;BME280;17710;52.520;13.352;2023-01-30T06:50:55;100229.31;;;6.95;67.99
31044;BME280;17710;52.520;13.352;2023-01-30T06:53:22;100228.75;;;6.84;68.59
31044;BME280;17710;52.520;13.352;2023-01-30T06:55:54;100211.97;;;6.89;68.65
31044;BME280;17710;52.520;13.352;2023-01-30T06:58:20;100217.72;;;7.02;68.21
31044;BME280;17710;52.520;13.352;2023-01-30T07:00:48;100212.81;;;6.90;68.97
31044;BME280;17710;52.520;13.352;2023-01-30T07:03:16;100215.03;;;6.74;69.47
31044;BME280;17710;52.520;13.352;2023-01-30T07:05:45;100207.16;;;6.74;70.32
31044;BME280;17710;52.520;13.352;2023-01-30T07:08:12;100206.16;;;6.78;69.85
31044;BME280;17710;52.520;13.352;2023-01-30T07:10:39;100212.00;;;6.88;70.56
31044;BME280;17710;52.520;13.352;2023-01-30T07:13:06;100198.75;;;7.22;69.38
31044;BME280;17710;52.520;13.352;2023-01-30T07:15:32;100192.66;;;7.19;69.28
31044;BME280;17710;52.520;13.352;2023-01-30T07:18:00;100198.97;;;7.42;68.78
31044;BME280;17710;52.520;13.352;2023-01-30T07:20:27;100195.16;;;7.24;69.03
31044;BME280;17710;52.520;13.352;2023-01-30T07:22:55;100190.06;;;7.18;69.65
31044;BME280;17710;52.520;13.352;2023-01-30T07:25:23;100197.19;;;6.85;71.45
31044;BME280;17710;52.520;13.352;2023-01-30T07:27:50;100187.00;;;7.33;70.15
31044;BME280;17710;52.520;13.352;2023-01-30T07:30:17;100182.91;;;7.51;69.55
31044;BME280;17710;52.520;13.352;2023-01-30T07:32:48;100182.81;;;7.26;70.17
31044;BME280;17710;52.520;13.352;2023-01-30T07:35:16;100181.75;;;7.59;69.34
31044;BME280;17710;52.520;13.352;2023-01-30T07:37:44;100177.16;;;7.66;68.81
31044;BME280;17710;52.520;13.352;2023-01-30T07:40:11;100179.88;;;7.35;69.99
31044;BME280;17710;52.520;13.352;2023-01-30T07:42:38;100178.13;;;7.64;69.34
31044;BME280;17710;52.520;13.352;2023-01-30T07:45:05;100181.41;;;7.70;69.50
31044;BME280;17710;52.520;13.352;2023-01-30T07:47:32;100192.28;;;7.59;70.43
31044;BME280;17710;52.520;13.352;2023-01-30T07:50:00;100194.78;;;7.63;70.87
31044;BME280;17710;52.520;13.352;2023-01-30T07:52:28;100205.03;;;7.44;71.29
31044;BME280;17710;52.520;13.352;2023-01-30T07:54:55;100209.88;;;7.57;70.97
31044;BME280;17710;52.520;13.352;2023-01-30T07:57:21;100204.84;;;7.50;71.87
31044;BME280;17710;52.520;13.352;2023-01-30T07:59:48;100206.91;;;7.40;71.54
31044;BME280;17710;52.520;13.352;2023-01-30T08:02:14;100205.66;;;7.52;72.02
31044;BME280;17710;52.520;13.352;2023-01-30T08:04:40;100202.38;;;7.45;72.08
31044;BME280;17710;52.520;13.352;2023-01-30T08:07:07;100205.72;;;7.50;72.23
31044;BME280;17710;52.520;13.352;2023-01-30T08:09:35;100205.00;;;7.45;72.60
31044;BME280;17710;52.520;13.352;2023-01-30T08:12:01;100217.97;;;7.78;71.93
31044;BME280;17710;52.520;13.352;2023-01-30T08:14:27;100198.66;;;8.05;70.89
31044;BME280;17710;52.520;13.352;2023-01-30T08:16:55;100204.66;;;8.09;70.61
31044;BME280;17710;52.520;13.352;2023-01-30T08:19:21;100204.53;;;7.87;71.30
31044;BME280;17710;52.520;13.352;2023-01-30T08:21:48;100214.00;;;7.92;71.38
31044;BME280;17710;52.520;13.352;2023-01-30T08:24:14;100203.59;;;7.61;73.12
31044;BME280;17710;52.520;13.352;2023-01-30T08:26:42;100191.88;;;7.72;72.70
31044;BME280;17710;52.520;13.352;2023-01-30T08:29:09;100191.94;;;7.70;72.93
31044;BME280;17710;52.520;13.352;2023-01-30T08:31:35;100169.72;;;8.05;72.06
31044;BME280;17710;52.520;13.352;2023-01-30T08:34:02;100171.00;;;8.18;70.91
31044;BME280;17710;52.520;13.352;2023-01-30T08:36:28;100188.63;;;8.16;71.21
31044;BME280;17710;52.520;13.352;2023-01-30T08:38:54;100187.97;;;8.10;71.09
31044;BME280;17710;52.520;13.352;2023-01-30T08:41:21;100200.19;;;8.12;71.54
31044;BME280;17710;52.520;13.352;2023-01-30T08:43:49;100198.97;;;7.96;71.20
31044;BME280;17710;52.520;13.352;2023-01-30T08:46:15;100197.22;;;7.95;71.84
31044;BME280;17710;52.520;13.352;2023-01-30T08:48:44;100196.66;;;7.87;71.83
31044;BME280;17710;52.520;13.352;2023-01-30T08:51:10;100208.81;;;7.89;71.80
31044;BME280;17710;52.520;13.352;2023-01-30T08:53:37;100199.47;;;7.81;71.63
31044;BME280;17710;52.520;13.352;2023-01-30T08:56:04;100200.94;;;7.89;71.67
31044;BME280;17710;52.520;13.352;2023-01-30T08:58:30;100191.03;;;7.97;71.41
31044;BME280;17710;52.520;13.352;2023-01-30T09:01:04;100199.78;;;8.23;70.45
31044;BME280;17710;52.520;13.352;2023-01-30T09:03:30;100189.06;;;8.54;69.66
31044;BME280;17710;52.520;13.352;2023-01-30T09:05:57;100196.25;;;8.73;68.16
31044;BME280;17710;52.520;13.352;2023-01-30T09:08:23;100193.19;;;8.61;69.22
31044;BME280;17710;52.520;13.352;2023-01-30T09:10:50;100191.06;;;8.47;69.23
31044;BME280;17710;52.520;13.352;2023-01-30T09:13:16;100196.97;;;8.54;69.17
31044;BME280;17710;52.520;13.352;2023-01-30T09:15:43;100199.59;;;8.29;69.99
31044;BME280;17710;52.520;13.352;2023-01-30T09:18:10;100210.72;;;8.62;68.80
31044;BME280;17710;52.520;13.352;2023-01-30T09:20:37;100205.78;;;8.77;68.24
31044;BME280;17710;52.520;13.352;2023-01-30T09:23:03;100210.19;;;8.77;68.15
31044;BME280;17710;52.520;13.352;2023-01-30T09:25:30;100210.59;;;8.90;67.47
31044;BME280;17710;52.520;13.352;2023-01-30T09:27:56;100210.81;;;8.84;67.66
31044;BME280;17710;52.520;13.352;2023-01-30T09:30:24;100214.19;;;9.10;66.71
31044;BME280;17710;52.520;13.352;2023-01-30T09:32:50;100218.59;;;9.33;65.95
31044;BME280;17710;52.520;13.352;2023-01-30T09:35:18;100211.91;;;9.25;66.35
31044;BME280;17710;52.520;13.352;2023-01-30T09:37:48;100208.22;;;9.29;65.79
31044;BME280;17710;52.520;13.352;2023-01-30T09:40:16;100207.13;;;9.34;65.63
31044;BME280;17710;52.520;13.352;2023-01-30T09:45:43;100214.69;;;9.20;65.79
31044;BME280;17710;52.520;13.352;2023-01-30T09:48:18;100208.81;;;8.90;66.44
31044;BME280;17710;52.520;13.352;2023-01-30T09:51:04;100199.53;;;9.03;66.59
31044;BME280;17710;52.520;13.352;2023-01-30T09:53:43;100203.63;;;9.34;65.98
31044;BME280;17710;52.520;13.352;2023-01-30T09:56:12;100205.09;;;9.41;65.13
31044;BME280;17710;52.520;13.352;2023-01-30T09:58:42;100206.97;;;9.15;66.19
31044;BME280;17710;52.520;13.352;2023-01-30T10:01:15;100198.19;;;9.38;64.62
31044;BME280;17710;52.520;13.352;2023-01-30T10:06:44;100208.41;;;9.46;64.33
31044;BME280;17710;52.520;13.352;2023-01-30T10:09:18;100196.22;;;9.65;63.48
31044;BME280;17710;52.520;13.352;2023-01-30T10:11:59;100196.47;;;9.59;63.43
31044;BME280;17710;52.520;13.352;2023-01-30T10:14:45;100196.69;;;9.53;62.23
31044;BME280;17710;52.520;13.352;2023-01-30T10:17:30;100198.72;;;9.25;63.09
31044;BME280;17710;52.520;13.352;2023-01-30T10:20:15;100199.00;;;8.94;63.94
31044;BME280;17710;52.520;13.352;2023-01-30T10:22:59;100195.63;;;9.13;63.22
31044;BME280;17710;52.520;13.352;2023-01-30T10:25:31;100213.50;;;9.29;62.12
31044;BME280;17710;52.520;13.352;2023-01-30T10:28:02;100197.22;;;9.63;61.37
31044;BME280;17710;52.520;13.352;2023-01-30T10:30:32;100208.81;;;10.00;60.35
31044;BME280;17710;52.520;13.352;2023-01-30T10:33:02;100201.06;;;9.97;59.19
31044;BME280;17710;52.520;13.352;2023-01-30T10:35:37;100196.28;;;10.06;58.66
31044;BME280;17710;52.520;13.352;2023-01-30T10:38:11;100191.53;;;9.93;58.45
31044;BME280;17710;52.520;13.352;2023-01-30T10:40:43;100188.19;;;9.68;58.55
31044;BME280;17710;52.520;13.352;2023-01-30T10:43:22;100187.38;;;9.66;58.48
31044;BME280;17710;52.520;13.352;2023-01-30T10:46:00;100182.53;;;9.34;58.55
31044;BME280;17710;52.520;13.352;2023-01-30T10:48:44;100178.00;;;9.37;57.86
31044;BME280;17710;52.520;13.352;2023-01-30T10:51:22;100188.19;;;9.25;58.96
31044;BME280;17710;52.520;13.352;2023-01-30T10:53:54;100175.78;;;9.27;57.88
31044;BME280;17710;52.520;13.352;2023-01-30T10:56:29;100185.59;;;9.00;59.17
31044;BME280;17710;52.520;13.352;2023-01-30T10:59:06;100172.66;;;9.17;58.62
31044;BME280;17710;52.520;13.352;2023-01-30T11:01:42;100168.38;;;8.68;59.78
31044;BME280;17710;52.520;13.352;2023-01-30T11:04:14;100173.56;;;9.16;58.02
31044;BME280;17710;52.520;13.352;2023-01-30T11:06:48;100168.94;;;8.99;58.77
31044;BME280;17710;52.520;13.352;2023-01-30T11:09:17;100160.09;;;9.24;58.02
31044;BME280;17710;52.520;13.352;2023-01-30T11:11:50;100160.47;;;9.58;57.04
31044;BME280;17710;52.520;13.352;2023-01-30T11:14:18;100159.50;;;9.81;56.42
31044;BME280;17710;52.520;13.352;2023-01-30T11:16:57;100147.84;;;10.07;55.71
31044;BME280;17710;52.520;13.352;2023-01-30T11:19:31;100145.06;;;9.69;56.43
31044;BME280;17710;52.520;13.352;2023-01-30T11:22:01;100139.81;;;10.10;55.57
31044;BME280;17710;52.520;13.352;2023-01-30T11:24:31;100126.84;;;9.63;56.63
31044;BME280;17710;52.520;13.352;2023-01-30T11:27:09;100118.31;;;10.19;55.34
31044;BME280;17710;52.520;13.352;2023-01-30T11:29:37;100103.78;;;9.88;55.68
31044;BME280;17710;52.520;13.352;2023-01-30T11:32:11;100100.75;;;9.97;55.98
31044;BME280;17710;52.520;13.352;2023-01-30T11:34:40;100103.66;;;10.32;54.86
31044;BME280;17710;52.520;13.352;2023-01-30T11:37:12;100098.91;;;10.20;54.97
31044;BME280;17710;52.520;13.352;2023-01-30T11:39:47;100106.44;;;10.09;55.17
31044;BME280;17710;52.520;13.352;2023-01-30T11:42:18;100116.59;;;9.97;55.78
31044;BME280;17710;52.520;13.352;2023-01-30T11:44:45;100097.75;;;10.05;55.24
31044;BME280;17710;52.520;13.352;2023-01-30T11:47:19;100101.50;;;9.59;57.80
31044;BME280;17710;52.520;13.352;2023-01-30T11:49:47;100116.31;;;9.83;57.11
31044;BME280;17710;52.520;13.352;2023-01-30T11:52:17;100094.00;;;9.70;56.22
31044;BME280;17710;52.520;13.352;2023-01-30T11:54:48;100097.25;;;9.35;58.26
31044;BME280;17710;52.520;13.352;2023-01-30T11:57:17;100108.16;;;9.26;59.58
31044;BME280;17710;52.520;13.352;2023-01-30T11:59:46;100124.13;;;8.99;60.54
31044;BME280;17710;52.520;13.352;2023-01-30T12:02:18;100111.47;;;9.31;61.51
31044;BME280;17710;52.520;13.352;2023-01-30T12:04:48;100098.59;;;9.65;60.48
31044;BME280;17710;52.520;13.352;2023-01-30T12:07:20;100104.94;;;9.61;61.58
31044;BME280;17710;52.520;13.352;2023-01-30T12:09:49;100116.25;;;8.76;63.41
31044;BME280;17710;52.520;13.352;2023-01-30T12:12:42;100082.16;;;8.25;64.71
31044;BME280;17710;52.520;13.352;2023-01-30T12:15:17;100089.94;;;8.28;64.65
31044;BME280;17710;52.520;13.352;2023-01-30T12:18:15;100088.38;;;8.22;65.19
31044;BME280;17710;52.520;13.352;2023-01-30T12:20:48;100085.41;;;8.33;65.59
31044;BME280;17710;52.520;13.352;2023-01-30T12:23:22;100086.81;;;8.88;64.85
31044;BME280;17710;52.520;13.352;2023-01-30T12:25:58;100058.75;;;9.09;64.07
31044;BME280;17710;52.520;13.352;2023-01-30T12:28:32;100061.69;;;9.45;63.21
31044;BME280;17710;52.520;13.352;2023-01-30T12:31:04;100059.41;;;9.36;61.57
31044;BME280;17710;52.520;13.352;2023-01-30T12:33:34;100045.47;;;9.74;60.82
31044;BME280;17710;52.520;13.352;2023-01-30T12:36:08;100038.78;;;9.66;60.16
31044;BME280;17710;52.520;13.352;2023-01-30T12:38:51;100028.28;;;10.05;58.49
31044;BME280;17710;52.520;13.352;2023-01-30T12:41:30;100033.44;;;9.87;57.97
31044;BME280;17710;52.520;13.352;2023-01-30T12:44:20;100034.34;;;10.07;56.86
31044;BME280;17710;52.520;13.352;2023-01-30T12:47:14;100027.69;;;9.98;57.36
31044;BME280;17710;52.520;13.352;2023-01-30T12:49:53;100039.00;;;10.22;57.48
31044;BME280;17710;52.520;13.352;2023-01-30T12:52:39;100033.72;;;9.81;57.61
31044;BME280;17710;52.520;13.352;2023-01-30T12:55:19;100037.28;;;10.39;57.05
31044;BME280;17710;52.520;13.352;2023-01-30T12:57:52;100035.78;;;10.14;56.01
31044;BME280;17710;52.520;13.352;2023-01-30T13:00:39;100023.16;;;10.22;56.17
31044;BME280;17710;52.520;13.352;2023-01-30T13:03:21;100012.44;;;10.44;55.14
31044;BME280;17710;52.520;13.352;2023-01-30T13:05:51;100029.53;;;10.16;54.90
31044;BME280;17710;52.520;13.352;2023-01-30T13:08:36;100019.47;;;9.85;56.41
31044;BME280;17710;52.520;13.352;2023-01-30T13:11:15;100018.78;;;10.00;55.90